createdAt,value
2022-12-28T00:01:30.925Z,7.88
2022-12-28T00:04:00.636Z,6.43
2022-12-28T00:06:27.716Z,6.25
2022-12-28T00:08:56.031Z,12.55
2022-12-28T00:11:30.661Z,4.57
2022-12-28T00:14:00.796Z,4.63
2022-12-28T00:16:29.016Z,14.23
2022-12-28T00:18:57.634Z,6.82
2022-12-28T00:21:25.293Z,14.23
2022-12-28T00:23:53.637Z,7.45
2022-12-28T00:26:24.358Z,7.40
2022-12-28T00:28:51.218Z,10.45
2022-12-28T00:31:18.048Z,10.48
2022-12-28T00:33:44.948Z,8.52
2022-12-28T00:36:13.937Z,9.93
2022-12-28T00:38:41.166Z,9.45
2022-12-28T00:41:08.511Z,9.88
2022-12-28T00:43:35.367Z,9.68
2022-12-28T00:46:02.566Z,8.25
2022-12-28T00:48:30.215Z,9.55
2022-12-28T00:51:09.758Z,8.52
2022-12-28T00:53:36.818Z,8.25
2022-12-28T00:56:06.644Z,8.65
2022-12-28T00:58:33.615Z,9.55
2022-12-28T01:01:00.855Z,8.70
2022-12-28T01:03:27.909Z,8.73
2022-12-28T01:05:54.756Z,7.10
2022-12-28T01:08:21.814Z,8.95
2022-12-28T01:10:48.627Z,9.75
2022-12-28T01:13:15.678Z,8.13
2022-12-28T01:15:42.503Z,5.40
2022-12-28T01:18:09.246Z,6.82
2022-12-28T01:20:40.521Z,5.35
2022-12-28T01:23:07.573Z,5.88
2022-12-28T01:25:34.490Z,6.20
2022-12-28T01:28:01.389Z,7.00
2022-12-28T01:30:30.460Z,5.30
2022-12-28T01:32:59.842Z,5.10
2022-12-28T01:35:26.794Z,5.85
2022-12-28T01:37:57.045Z,8.07
2022-12-28T01:40:27.420Z,5.97
2022-12-28T01:42:54.799Z,6.10
2022-12-28T01:45:22.957Z,6.85
2022-12-28T01:47:54.716Z,2.83
2022-12-28T01:50:26.993Z,2.55
2022-12-28T01:53:00.395Z,5.03
2022-12-28T01:55:35.253Z,4.72
2022-12-28T01:58:10.666Z,6.93
2022-12-28T02:00:37.540Z,2.70
2022-12-28T02:03:27.206Z,4.13
2022-12-28T02:05:59.938Z,5.82
2022-12-28T02:08:33.634Z,2.65
2022-12-28T02:11:01.858Z,5.10
2022-12-28T02:13:28.873Z,4.03
2022-12-28T02:15:55.637Z,3.65
2022-12-28T02:18:24.042Z,3.22
2022-12-28T02:21:36.821Z,5.22
2022-12-28T02:24:24.812Z,3.10
2022-12-28T02:26:57.956Z,3.08
2022-12-28T02:29:36.826Z,3.00
2022-12-28T02:32:11.086Z,3.00
2022-12-28T02:34:53.181Z,3.63
2022-12-28T02:37:26.072Z,2.63
2022-12-28T02:40:21.181Z,3.78
2022-12-28T02:42:49.725Z,3.97
2022-12-28T02:45:55.700Z,6.38
2022-12-28T02:48:41.658Z,4.20
2022-12-28T02:51:36.397Z,5.15
2022-12-28T02:54:40.061Z,4.50
2022-12-28T02:57:30.171Z,2.95
2022-12-28T03:00:11.190Z,3.80
2022-12-28T03:02:49.942Z,4.28
2022-12-28T03:06:11.391Z,2.75
2022-12-28T03:09:26.763Z,4.38
2022-12-28T03:12:08.845Z,1.45
2022-12-28T03:14:45.151Z,1.63
2022-12-28T03:17:32.951Z,2.03
2022-12-28T03:20:32.313Z,2.50
2022-12-28T03:23:22.620Z,1.55
2022-12-28T03:26:10.281Z,2.67
2022-12-28T03:28:58.614Z,2.33
2022-12-28T03:31:28.528Z,3.45
2022-12-28T03:34:06.977Z,2.35
2022-12-28T03:36:33.864Z,1.83
2022-12-28T03:39:10.803Z,2.97
2022-12-28T03:41:43.209Z,3.38
2022-12-28T03:44:18.625Z,3.47
2022-12-28T03:46:57.757Z,4.10
2022-12-28T03:49:25.144Z,2.38
2022-12-28T03:51:52.580Z,2.10
2022-12-28T03:54:19.481Z,1.58
2022-12-28T03:56:51.199Z,2.50
2022-12-28T03:59:18.982Z,2.28
2022-12-28T04:01:46.402Z,1.55
2022-12-28T04:04:13.369Z,1.75
2022-12-28T04:06:40.244Z,1.60
2022-12-28T04:09:07.643Z,1.85
2022-12-28T04:11:34.527Z,2.13
2022-12-28T04:14:10.121Z,2.78
2022-12-28T04:16:37.634Z,1.58
2022-12-28T04:19:04.481Z,1.27
2022-12-28T04:21:31.301Z,2.60
2022-12-28T04:23:58.095Z,4.22
2022-12-28T04:26:24.863Z,1.27
2022-12-28T04:28:51.623Z,1.58
2022-12-28T04:31:18.578Z,2.17
2022-12-28T04:33:45.452Z,1.10
2022-12-28T04:36:16.603Z,1.70
2022-12-28T04:38:43.801Z,1.20
2022-12-28T04:41:11.584Z,1.27
2022-12-28T04:43:40.105Z,1.25
2022-12-28T04:46:11.413Z,1.10
2022-12-28T04:48:38.925Z,1.30
2022-12-28T04:51:26.350Z,3.75
2022-12-28T04:53:54.170Z,1.95
2022-12-28T04:56:23.069Z,1.73
2022-12-28T04:58:54.881Z,0.82
2022-12-28T05:01:22.066Z,1.13
2022-12-28T05:03:55.053Z,1.05
2022-12-28T05:06:25.883Z,0.93
2022-12-28T05:08:52.591Z,0.80
2022-12-28T05:11:25.097Z,1.13
2022-12-28T05:13:52.722Z,1.20
2022-12-28T05:16:22.097Z,1.05
2022-12-28T05:18:49.352Z,1.10
2022-12-28T05:21:21.678Z,1.38
2022-12-28T05:23:49.484Z,1.10
2022-12-28T05:26:23.097Z,1.60
2022-12-28T05:28:50.540Z,1.88
2022-12-28T05:31:21.327Z,0.90
2022-12-28T05:33:48.912Z,0.80
2022-12-28T05:36:18.451Z,1.23
2022-12-28T05:38:46.275Z,1.35
2022-12-28T05:41:27.370Z,1.10
2022-12-28T05:43:55.381Z,1.00
2022-12-28T05:46:25.666Z,1.00
2022-12-28T05:48:55.367Z,1.30
2022-12-28T05:51:24.979Z,0.98
2022-12-28T05:53:51.847Z,2.65
2022-12-28T05:56:21.990Z,0.80
2022-12-28T05:58:55.548Z,1.10
2022-12-28T06:01:24.844Z,1.52
2022-12-28T06:04:01.318Z,1.10
2022-12-28T06:06:28.887Z,0.88
2022-12-28T06:08:55.860Z,1.67
2022-12-28T06:11:25.415Z,1.10
2022-12-28T06:13:52.642Z,2.55
2022-12-28T06:16:22.309Z,1.38
2022-12-28T06:18:49.569Z,1.23
2022-12-28T06:21:19.774Z,1.00
2022-12-28T06:23:47.255Z,1.08
2022-12-28T06:26:16.633Z,1.42
2022-12-28T06:28:44.134Z,1.20
2022-12-28T06:31:17.221Z,1.02
2022-12-28T06:36:20.532Z,1.92
2022-12-28T06:38:48.951Z,0.82
2022-12-28T06:41:17.491Z,1.13
2022-12-28T06:43:45.374Z,1.10
2022-12-28T06:46:16.617Z,1.30
2022-12-28T06:48:44.022Z,1.65
2022-12-28T06:51:17.702Z,1.00
2022-12-28T06:53:45.565Z,1.10
2022-12-28T06:56:17.586Z,1.40
2022-12-28T06:58:45.577Z,1.00
2022-12-28T07:01:22.067Z,1.35
2022-12-28T07:03:50.868Z,1.92
2022-12-28T07:06:20.448Z,1.00
2022-12-28T07:08:48.268Z,1.05
2022-12-28T07:11:20.353Z,1.15
2022-12-28T07:13:47.315Z,1.20
2022-12-28T07:16:17.520Z,1.55
2022-12-28T07:18:45.327Z,1.38
2022-12-28T07:21:16.474Z,1.00
2022-12-28T07:23:43.451Z,1.50
2022-12-28T07:26:12.511Z,1.20
2022-12-28T07:28:41.036Z,1.20
2022-12-28T07:31:16.881Z,1.10
2022-12-28T07:33:44.641Z,1.10
2022-12-28T07:36:14.805Z,1.10
2022-12-28T07:38:42.122Z,1.08
2022-12-28T07:41:14.921Z,1.60
2022-12-28T07:43:42.293Z,1.02
2022-12-28T07:46:22.497Z,1.20
2022-12-28T07:48:50.461Z,1.50
2022-12-28T07:51:19.362Z,3.70
2022-12-28T07:53:48.551Z,5.80
2022-12-28T07:56:16.210Z,4.20
2022-12-28T08:01:11.367Z,2.67
2022-12-28T08:03:40.313Z,3.83
2022-12-28T08:06:11.609Z,3.08
2022-12-28T08:08:43.540Z,7.97
2022-12-28T08:11:16.056Z,2.28
2022-12-28T08:13:45.024Z,2.78
2022-12-28T08:16:14.210Z,2.65
2022-12-28T08:18:41.682Z,2.28
2022-12-28T08:21:13.183Z,2.15
2022-12-28T08:23:40.238Z,3.05
2022-12-28T08:26:14.012Z,2.40
2022-12-28T08:28:41.857Z,2.33
2022-12-28T08:31:14.697Z,2.08
2022-12-28T08:33:42.390Z,2.97
2022-12-28T08:36:10.648Z,1.55
2022-12-28T08:38:38.863Z,2.05
2022-12-28T08:41:08.128Z,2.85
2022-12-28T08:43:36.015Z,1.92
2022-12-28T08:46:11.517Z,2.03
2022-12-28T08:48:42.369Z,1.48
2022-12-28T08:51:12.939Z,2.13
2022-12-28T08:53:40.529Z,2.20
2022-12-28T08:56:12.995Z,2.15
2022-12-28T08:58:41.444Z,2.55
2022-12-28T09:01:09.125Z,2.65
2022-12-28T09:03:38.244Z,2.15
2022-12-28T09:06:07.276Z,2.85
2022-12-28T09:08:34.205Z,2.53
2022-12-28T09:11:03.508Z,1.85
2022-12-28T09:13:33.511Z,2.15
2022-12-28T09:16:18.947Z,3.05
2022-12-28T09:18:46.565Z,1.65
2022-12-28T09:21:19.057Z,2.80
2022-12-28T09:23:47.036Z,1.98
2022-12-28T09:26:16.996Z,2.65
2022-12-28T09:28:49.264Z,1.90
2022-12-28T09:31:17.059Z,2.73
2022-12-28T09:36:46.984Z,2.25
2022-12-28T09:39:17.802Z,1.33
2022-12-28T09:41:53.059Z,2.58
2022-12-28T09:44:30.315Z,2.88
2022-12-28T09:47:18.957Z,4.70
2022-12-28T09:50:21.944Z,4.90
2022-12-28T09:53:16.435Z,4.20
2022-12-28T09:55:53.412Z,4.97
2022-12-28T09:58:21.657Z,10.60
2022-12-28T10:00:52.629Z,6.07
2022-12-28T10:03:43.026Z,5.20
2022-12-28T10:06:17.883Z,3.88
2022-12-28T10:08:48.657Z,3.90
2022-12-28T10:11:26.250Z,4.40
2022-12-28T10:14:14.696Z,6.45
2022-12-28T10:16:45.576Z,6.15
2022-12-28T10:19:22.226Z,3.28
2022-12-28T10:21:59.229Z,5.65
2022-12-28T10:24:32.752Z,9.32
2022-12-28T10:27:03.930Z,6.13
2022-12-28T10:29:34.907Z,4.85
2022-12-28T10:32:12.799Z,4.55
2022-12-28T10:34:54.638Z,5.95
2022-12-28T10:37:21.892Z,6.68
2022-12-28T10:40:31.925Z,5.60
2022-12-28T10:43:01.249Z,5.20
2022-12-28T10:45:41.728Z,4.57
2022-12-28T10:48:21.829Z,6.10
2022-12-28T10:50:53.507Z,4.50
2022-12-28T10:53:33.847Z,3.75
2022-12-28T10:56:24.973Z,3.97
2022-12-28T10:59:12.161Z,4.50
2022-12-28T11:01:40.469Z,3.50
2022-12-28T11:04:19.482Z,3.80
2022-12-28T11:07:00.983Z,4.18
2022-12-28T11:09:36.303Z,6.22
2022-12-28T11:12:23.694Z,4.50
2022-12-28T11:14:52.498Z,4.38
2022-12-28T11:17:31.384Z,3.78
2022-12-28T11:20:08.603Z,5.18
2022-12-28T11:22:35.569Z,4.55
2022-12-28T11:25:02.649Z,5.22
2022-12-28T11:27:29.422Z,5.22
2022-12-28T11:29:58.487Z,4.78
2022-12-28T11:32:30.431Z,4.57
2022-12-28T11:34:58.512Z,7.10
2022-12-28T11:37:25.278Z,3.92
2022-12-28T11:39:53.182Z,4.50
2022-12-28T11:42:40.654Z,5.13
2022-12-28T11:45:16.686Z,5.78
2022-12-28T11:47:43.588Z,4.93
2022-12-28T11:50:36.767Z,6.72
2022-12-28T11:53:18.921Z,6.38
2022-12-28T11:56:06.303Z,5.43
2022-12-28T11:58:43.627Z,5.97
2022-12-28T12:01:29.391Z,5.95
2022-12-28T12:03:59.355Z,7.95
2022-12-28T12:06:44.217Z,6.03
2022-12-28T12:09:25.918Z,7.85
2022-12-28T12:12:03.980Z,5.28
2022-12-28T12:14:36.533Z,7.00
2022-12-28T12:17:47.345Z,6.38
2022-12-28T12:20:51.549Z,4.22
2022-12-28T12:23:26.457Z,10.07
2022-12-28T12:25:57.845Z,6.60
2022-12-28T12:28:47.239Z,5.38
2022-12-28T12:31:27.116Z,8.65
2022-12-28T12:34:00.131Z,5.60
2022-12-28T12:36:40.810Z,5.13
2022-12-28T12:39:35.208Z,5.45
2022-12-28T12:42:18.791Z,7.20
2022-12-28T12:44:59.955Z,5.28
2022-12-28T12:47:32.740Z,6.53
2022-12-28T12:50:20.852Z,7.43
2022-12-28T12:52:55.084Z,5.45
2022-12-28T12:55:36.187Z,7.32
2022-12-28T12:58:06.795Z,5.90
2022-12-28T13:00:53.688Z,9.65
2022-12-28T13:03:34.372Z,8.18
2022-12-28T13:06:04.757Z,8.43
2022-12-28T13:08:44.975Z,8.75
2022-12-28T13:11:12.725Z,7.22
2022-12-28T13:13:41.388Z,11.18
2022-12-28T13:16:16.036Z,9.88
2022-12-28T13:18:57.021Z,7.70
2022-12-28T13:21:29.179Z,9.05
2022-12-28T13:23:56.059Z,11.05
2022-12-28T13:26:27.694Z,9.73
2022-12-28T13:29:00.116Z,9.68
2022-12-28T13:31:35.471Z,8.27
2022-12-28T13:34:06.556Z,10.07
2022-12-28T13:36:33.358Z,10.90
2022-12-28T13:39:04.056Z,9.68
2022-12-28T13:41:33.010Z,9.57
2022-12-28T13:44:21.431Z,8.43
2022-12-28T13:46:55.345Z,10.50
2022-12-28T13:49:23.449Z,11.27
2022-12-28T13:51:53.496Z,8.30
2022-12-28T13:54:22.864Z,9.02
2022-12-28T13:56:49.636Z,10.57
2022-12-28T13:59:19.113Z,11.10
2022-12-28T14:01:50.407Z,9.20
2022-12-28T14:04:51.807Z,11.40
2022-12-28T14:07:16.208Z,9.13
2022-12-28T14:09:43.700Z,11.10
2022-12-28T14:12:12.853Z,9.93
2022-12-28T14:14:40.925Z,10.27
2022-12-28T14:17:08.237Z,10.30
2022-12-28T14:19:35.449Z,12.88
2022-12-28T14:22:02.557Z,8.15
2022-12-28T14:24:29.366Z,8.38
2022-12-28T14:26:58.409Z,10.70
2022-12-28T14:29:31.520Z,8.32
2022-12-28T14:32:00.808Z,10.50
2022-12-28T14:34:34.165Z,10.88
2022-12-28T14:37:01.461Z,12.20
2022-12-28T14:39:37.855Z,10.57
2022-12-28T14:42:07.201Z,10.50
2022-12-28T14:44:40.020Z,9.07
2022-12-28T14:47:37.815Z,11.30
2022-12-28T14:50:36.821Z,13.32
2022-12-28T14:53:20.154Z,12.55
2022-12-28T14:58:30.124Z,10.93
2022-12-28T15:01:02.885Z,15.15
2022-12-28T15:03:30.838Z,11.57
2022-12-28T15:05:59.225Z,12.18
2022-12-28T15:08:30.005Z,17.27
2022-12-28T15:10:59.339Z,14.18
2022-12-28T15:13:26.814Z,17.85
2022-12-28T15:15:59.393Z,14.07
2022-12-28T15:18:27.785Z,11.07
2022-12-28T15:20:54.944Z,13.95
2022-12-28T15:23:21.705Z,11.23
2022-12-28T15:25:49.104Z,10.75
2022-12-28T15:28:16.633Z,11.82
2022-12-28T15:30:44.043Z,19.58
2022-12-28T15:33:11.872Z,10.18
2022-12-28T15:35:38.743Z,11.90
2022-12-28T15:38:05.603Z,11.15
2022-12-28T15:40:32.400Z,13.75
2022-12-28T15:42:59.178Z,11.50
2022-12-28T15:45:26.222Z,9.70
2022-12-28T15:47:54.545Z,8.77
2022-12-28T15:50:21.761Z,27.85
2022-12-28T15:52:48.680Z,578.63
2022-12-28T15:55:15.579Z,358.15
2022-12-28T15:57:44.843Z,207.90
2022-12-28T16:00:18.767Z,267.15
2022-12-28T16:02:46.540Z,77.78
2022-12-28T16:05:13.686Z,66.22
2022-12-28T16:07:40.459Z,64.45
2022-12-28T16:10:07.470Z,42.85
2022-12-28T16:12:34.573Z,31.65
2022-12-28T16:15:01.518Z,29.73
2022-12-28T16:17:28.364Z,23.75
2022-12-28T16:19:55.071Z,35.63
2022-12-28T16:22:21.907Z,21.00
2022-12-28T16:24:49.052Z,17.83
2022-12-28T16:27:15.879Z,12.77
2022-12-28T16:29:45.988Z,16.13
2022-12-28T16:32:12.961Z,12.25
2022-12-28T16:34:39.665Z,13.00
2022-12-28T16:37:06.573Z,15.90
2022-12-28T16:39:34.260Z,18.90
2022-12-28T16:42:01.001Z,19.80
2022-12-28T16:44:29.627Z,17.58
2022-12-28T16:46:59.722Z,15.55
2022-12-28T16:49:27.998Z,11.73
2022-12-28T16:51:54.790Z,9.38
2022-12-28T16:54:24.440Z,11.95
2022-12-28T16:56:52.758Z,13.88
2022-12-28T16:59:25.279Z,9.77
2022-12-28T17:01:53.333Z,13.43
2022-12-28T17:04:24.274Z,12.27
2022-12-28T17:06:52.061Z,9.63
2022-12-28T17:09:20.232Z,10.70
2022-12-28T17:11:48.433Z,11.13
2022-12-28T17:14:29.270Z,13.25
2022-12-28T17:17:03.103Z,14.90
2022-12-28T17:19:30.058Z,17.13
2022-12-28T17:21:56.779Z,11.02
2022-12-28T17:24:23.628Z,12.60
2022-12-28T17:26:50.422Z,21.23
2022-12-28T17:29:17.206Z,28.27
2022-12-28T17:31:47.553Z,16.33
2022-12-28T17:34:15.115Z,16.75
2022-12-28T17:36:41.839Z,13.82
2022-12-28T17:39:08.768Z,13.10
2022-12-28T17:41:39.784Z,16.23
2022-12-28T17:44:06.732Z,24.55
2022-12-28T17:46:40.914Z,14.65
2022-12-28T17:49:11.023Z,82.45
2022-12-28T17:51:39.450Z,126.15
2022-12-28T17:54:06.426Z,159.88
2022-12-28T17:56:33.522Z,86.88
2022-12-28T17:59:03.162Z,99.05
2022-12-28T18:01:30.324Z,92.85
2022-12-28T18:03:57.829Z,28.73
2022-12-28T18:06:25.915Z,39.63
2022-12-28T18:08:53.434Z,50.42
2022-12-28T18:11:20.365Z,42.50
2022-12-28T18:13:53.609Z,33.85
2022-12-28T18:18:48.693Z,30.48
2022-12-28T18:21:22.213Z,22.40
2022-12-28T18:23:51.587Z,20.17
2022-12-28T18:26:22.856Z,16.58
2022-12-28T18:28:50.070Z,18.25
2022-12-28T18:31:17.086Z,21.33
2022-12-28T18:33:43.845Z,18.63
2022-12-28T18:36:17.471Z,18.10
2022-12-28T18:38:46.775Z,10.82
2022-12-28T18:41:16.417Z,12.88
2022-12-28T18:43:43.447Z,20.83
2022-12-28T18:46:11.041Z,12.65
2022-12-28T18:48:40.186Z,17.30
2022-12-28T18:51:10.188Z,13.07
2022-12-28T18:53:37.798Z,15.35
2022-12-28T18:56:14.381Z,11.85
2022-12-28T18:58:42.065Z,13.77
2022-12-28T19:01:33.112Z,15.90
2022-12-28T19:04:01.126Z,15.32
2022-12-28T19:06:32.843Z,11.27
2022-12-28T19:09:00.636Z,9.93
2022-12-28T19:11:31.686Z,8.82
2022-12-28T19:13:58.432Z,13.07
2022-12-28T19:16:30.943Z,7.15
2022-12-28T19:19:01.554Z,6.43
2022-12-28T19:21:35.232Z,10.10
2022-12-28T19:24:06.995Z,58.97
2022-12-28T19:26:35.304Z,41.70
2022-12-28T19:29:12.107Z,32.30
2022-12-28T19:31:41.843Z,290.65
2022-12-28T19:34:09.069Z,64.65
2022-12-28T19:36:35.838Z,53.80
2022-12-28T19:39:02.537Z,77.50
2022-12-28T19:41:29.323Z,40.78
2022-12-28T19:43:56.184Z,23.25
2022-12-28T19:46:32.123Z,19.75
2022-12-28T19:49:01.502Z,11.60
2022-12-28T19:51:31.738Z,12.60
2022-12-28T19:54:00.000Z,9.20
2022-12-28T19:56:26.915Z,15.15
2022-12-28T19:59:05.172Z,13.07
2022-12-28T20:01:35.206Z,14.13
2022-12-28T20:04:05.756Z,15.48
2022-12-28T20:06:38.750Z,14.85
2022-12-28T20:09:05.909Z,9.55
2022-12-28T20:11:32.865Z,9.63
2022-12-28T20:14:01.883Z,10.07
2022-12-28T20:16:31.450Z,11.60
2022-12-28T20:18:58.567Z,11.05
2022-12-28T20:21:29.343Z,10.48
2022-12-28T20:23:57.568Z,13.30
2022-12-28T20:26:29.462Z,7.80
2022-12-28T20:29:00.766Z,10.57
2022-12-28T20:31:28.149Z,8.38
2022-12-28T20:33:55.229Z,8.77
2022-12-28T20:36:25.164Z,10.60
2022-12-28T20:38:53.405Z,9.90
2022-12-28T20:41:44.407Z,9.60
2022-12-28T20:44:21.000Z,8.30
2022-12-28T20:46:47.954Z,8.18
2022-12-28T20:49:15.004Z,8.70
2022-12-28T20:51:42.821Z,8.70
2022-12-28T20:54:11.003Z,8.77
2022-12-28T20:56:39.260Z,10.20
2022-12-28T20:59:07.280Z,10.38
2022-12-28T21:01:34.951Z,9.45
2022-12-28T21:04:02.160Z,9.40
2022-12-28T21:06:29.918Z,9.55
2022-12-28T21:08:56.770Z,10.48
2022-12-28T21:11:24.701Z,8.98
2022-12-28T21:13:51.855Z,11.25
2022-12-28T21:16:18.892Z,12.63
2022-12-28T21:18:46.010Z,12.15
2022-12-28T21:21:18.981Z,12.35
2022-12-28T21:23:46.162Z,9.60
2022-12-28T21:26:16.430Z,11.05
2022-12-28T21:28:43.857Z,7.20
2022-12-28T21:31:11.659Z,8.35
2022-12-28T21:33:39.795Z,7.25
2022-12-28T21:36:18.239Z,7.55
2022-12-28T21:38:46.971Z,8.30
2022-12-28T21:41:16.557Z,7.00
2022-12-28T21:43:43.556Z,7.32
2022-12-28T21:46:15.386Z,6.95
2022-12-28T21:48:42.682Z,8.95
2022-12-28T21:51:31.698Z,6.65
2022-12-28T21:54:07.373Z,10.23
2022-12-28T21:56:35.232Z,10.05
2022-12-28T21:59:04.177Z,6.78
2022-12-28T22:01:49.658Z,6.35
2022-12-28T22:04:39.849Z,6.43
2022-12-28T22:07:08.766Z,9.18
2022-12-28T22:09:55.206Z,5.45
2022-12-28T22:12:35.583Z,6.45
2022-12-28T22:15:33.648Z,8.63
2022-12-28T22:18:03.729Z,9.07
2022-12-28T22:20:31.673Z,6.78
2022-12-28T22:23:00.469Z,7.68
2022-12-28T22:25:29.338Z,6.85
2022-12-28T22:27:56.884Z,8.40
2022-12-28T22:30:24.218Z,6.78
2022-12-28T22:32:51.036Z,6.07
2022-12-28T22:35:18.605Z,9.48
2022-12-28T22:37:45.367Z,8.77
2022-12-28T22:40:13.000Z,9.77
2022-12-28T22:42:45.084Z,11.43
2022-12-28T22:45:14.022Z,10.07
2022-12-28T22:47:41.537Z,12.70
2022-12-28T22:50:11.492Z,10.13
2022-12-28T22:52:38.475Z,10.75
2022-12-28T23:00:27.012Z,12.18
2022-12-28T23:02:53.824Z,9.05
2022-12-28T23:05:20.873Z,8.05
2022-12-28T23:07:47.618Z,6.75
2022-12-28T23:10:14.458Z,9.57
2022-12-28T23:12:41.202Z,11.75
2022-12-28T23:15:18.926Z,8.63
2022-12-28T23:17:48.180Z,11.07
2022-12-28T23:20:33.847Z,10.75
2022-12-28T23:23:19.202Z,12.05
2022-12-28T23:26:04.287Z,10.15
2022-12-28T23:28:31.463Z,9.77
2022-12-28T23:30:58.897Z,10.23
2022-12-28T23:33:25.798Z,14.35
2022-12-28T23:35:52.830Z,10.23
2022-12-28T23:38:19.605Z,13.38
2022-12-28T23:41:06.335Z,8.10
2022-12-28T23:43:33.224Z,12.02
2022-12-28T23:46:03.641Z,11.43
2022-12-28T23:48:30.422Z,7.93
2022-12-28T23:51:08.686Z,9.90
2022-12-28T23:53:36.064Z,9.07
2022-12-28T23:56:03.228Z,10.95
2022-12-28T23:58:30.423Z,8.70
